createdAt,value
2022-10-20T00:01:25.191Z,98625.05
2022-10-20T00:03:58.418Z,98626.58
2022-10-20T00:06:32.674Z,98630.69
2022-10-20T00:09:09.789Z,98628.78
2022-10-20T00:11:42.715Z,98630.30
2022-10-20T00:14:15.695Z,98631.82
2022-10-20T00:16:48.425Z,98626.27
2022-10-20T00:19:21.065Z,98623.52
2022-10-20T00:21:53.445Z,98626.07
2022-10-20T00:24:26.156Z,98630.33
2022-10-20T00:26:59.195Z,98631.85
2022-10-20T00:29:33.475Z,98634.52
2022-10-20T00:32:06.235Z,98634.67
2022-10-20T00:34:38.816Z,98634.97
2022-10-20T00:37:11.295Z,98634.76
2022-10-20T00:39:43.936Z,98636.28
2022-10-20T00:42:18.646Z,98634.71
2022-10-20T00:45:00.009Z,98637.57
2022-10-20T00:47:40.964Z,98634.42
2022-10-20T00:50:18.155Z,98631.67
2022-10-20T00:52:52.088Z,98630.13
2022-10-20T00:55:28.754Z,98632.52
2022-10-20T00:58:02.685Z,98631.64
2022-10-20T01:00:35.635Z,98626.48
2022-10-20T01:03:13.634Z,98624.58
2022-10-20T01:05:46.406Z,98619.04
2022-10-20T01:08:19.015Z,98619.37
2022-10-20T01:11:10.935Z,98623.42
2022-10-20T01:13:55.375Z,98628.70
2022-10-20T01:16:37.210Z,98627.14
2022-10-20T01:19:28.495Z,98633.25
2022-10-20T01:22:25.315Z,98629.77
2022-10-20T01:25:08.865Z,98626.33
2022-10-20T01:27:44.610Z,98634.84
2022-10-20T01:30:20.223Z,98632.44
2022-10-20T01:33:06.465Z,98634.95
2022-10-20T01:35:50.895Z,98628.59
2022-10-20T01:38:31.823Z,98624.11
2022-10-20T01:41:11.225Z,98622.02
2022-10-20T01:43:47.136Z,98623.84
2022-10-20T01:46:23.548Z,98625.37
2022-10-20T01:48:56.765Z,98634.42
2022-10-20T01:51:29.527Z,98633.16
2022-10-20T01:54:02.421Z,98634.99
2022-10-20T01:56:44.234Z,98631.73
2022-10-20T01:59:48.666Z,98629.80
2022-10-20T02:02:46.631Z,98621.65
2022-10-20T02:05:32.616Z,98620.86
2022-10-20T02:08:13.676Z,98622.52
2022-10-20T02:10:50.359Z,98617.92
2022-10-20T02:13:24.265Z,98612.27
2022-10-20T02:15:58.936Z,98609.20
2022-10-20T02:18:37.296Z,98609.86
2022-10-20T02:21:11.114Z,98612.91
2022-10-20T02:23:44.186Z,98614.96
2022-10-20T02:26:20.629Z,98614.86
2022-10-20T02:28:59.314Z,98613.15
2022-10-20T02:31:33.125Z,98623.21
2022-10-20T02:34:06.317Z,98618.91
2022-10-20T02:36:42.924Z,98622.09
2022-10-20T02:39:15.996Z,98626.31
2022-10-20T02:41:48.536Z,98624.42
2022-10-20T02:44:21.095Z,98631.56
2022-10-20T02:46:53.683Z,98628.29
2022-10-20T02:49:27.816Z,98626.71
2022-10-20T02:52:00.395Z,98626.52
2022-10-20T02:54:33.223Z,98626.55
2022-10-20T02:57:05.849Z,98628.62
2022-10-20T02:59:38.475Z,98628.45
2022-10-20T03:02:11.027Z,98628.40
2022-10-20T03:04:43.815Z,98632.27
2022-10-20T03:07:17.106Z,98635.32
2022-10-20T03:09:49.855Z,98635.30
2022-10-20T03:12:22.433Z,98637.48
2022-10-20T03:14:55.125Z,98637.80
2022-10-20T03:17:27.957Z,98637.25
2022-10-20T03:20:00.725Z,98638.23
2022-10-20T03:22:33.379Z,98642.96
2022-10-20T03:25:06.456Z,98648.55
2022-10-20T03:27:39.363Z,98658.12
2022-10-20T03:30:13.705Z,98664.55
2022-10-20T03:32:46.316Z,98665.54
2022-10-20T03:35:19.165Z,98669.25
2022-10-20T03:37:51.654Z,98673.30
2022-10-20T03:40:24.495Z,98678.06
2022-10-20T03:42:57.125Z,98672.58
2022-10-20T03:45:32.295Z,98671.17
2022-10-20T03:48:04.775Z,98669.77
2022-10-20T03:50:39.655Z,98673.35
2022-10-20T03:53:14.105Z,98676.91
2022-10-20T03:55:46.796Z,98677.36
2022-10-20T03:58:19.724Z,98679.75
2022-10-20T04:00:53.565Z,98678.55
2022-10-20T04:03:26.235Z,98679.36
2022-10-20T04:06:01.425Z,98679.67
2022-10-20T04:08:34.159Z,98677.63
2022-10-20T04:11:07.225Z,98668.55
2022-10-20T04:13:40.475Z,98669.05
2022-10-20T04:16:13.647Z,98671.27
2022-10-20T04:18:46.615Z,98674.83
2022-10-20T04:21:19.373Z,98675.31
2022-10-20T04:23:52.397Z,98675.29
2022-10-20T04:26:25.046Z,98674.68
2022-10-20T04:29:01.075Z,98673.13
2022-10-20T04:31:34.606Z,98676.36
2022-10-20T04:34:05.496Z,98672.59
2022-10-20T04:36:37.975Z,98675.70
2022-10-20T04:39:11.111Z,98674.88
2022-10-20T04:41:44.457Z,98677.09
2022-10-20T04:44:17.655Z,98673.48
2022-10-20T04:46:50.195Z,98672.52
2022-10-20T04:49:23.026Z,98671.24
2022-10-20T04:51:59.964Z,98668.41
2022-10-20T04:54:35.738Z,98669.57
2022-10-20T04:57:08.365Z,98665.93
2022-10-20T04:59:41.155Z,98666.07
2022-10-20T05:02:15.513Z,98669.23
2022-10-20T05:04:48.315Z,98675.34
2022-10-20T05:07:21.196Z,98676.33
2022-10-20T05:09:53.735Z,98675.94
2022-10-20T05:12:26.406Z,98675.44
2022-10-20T05:14:58.976Z,98679.37
2022-10-20T05:17:32.523Z,98677.14
2022-10-20T05:20:06.120Z,98678.88
2022-10-20T05:22:39.033Z,98683.70
2022-10-20T05:25:35.044Z,98685.39
2022-10-20T05:28:05.046Z,98687.92
2022-10-20T05:30:39.134Z,98689.84
2022-10-20T05:33:14.477Z,98697.04
2022-10-20T05:35:47.116Z,98698.76
2022-10-20T05:38:19.637Z,98696.90
2022-10-20T05:40:52.405Z,98701.16
2022-10-20T05:43:25.005Z,98697.27
2022-10-20T05:45:59.035Z,98699.48
2022-10-20T05:48:31.495Z,98696.76
2022-10-20T05:51:14.947Z,98696.25
2022-10-20T05:53:49.335Z,98699.05
2022-10-20T05:56:23.335Z,98702.67
2022-10-20T05:58:56.375Z,98702.37
2022-10-20T06:01:40.623Z,98702.77
2022-10-20T06:04:13.216Z,98701.52
2022-10-20T06:06:46.871Z,98701.58
2022-10-20T06:09:17.935Z,98700.23
2022-10-20T06:11:52.057Z,98702.95
2022-10-20T06:14:26.209Z,98708.20
2022-10-20T06:16:59.895Z,98710.13
2022-10-20T06:19:35.028Z,98714.58
2022-10-20T06:22:07.939Z,98712.55
2022-10-20T06:24:40.591Z,98712.88
2022-10-20T06:27:13.388Z,98711.95
2022-10-20T06:29:46.524Z,98709.45
2022-10-20T06:32:19.456Z,98705.41
2022-10-20T06:34:52.146Z,98709.23
2022-10-20T06:37:24.805Z,98707.30
2022-10-20T06:39:57.467Z,98709.04
2022-10-20T06:42:30.786Z,98710.08
2022-10-20T06:45:04.001Z,98711.78
2022-10-20T06:47:37.007Z,98708.19
2022-10-20T06:50:12.075Z,98708.97
2022-10-20T06:52:44.728Z,98713.04
2022-10-20T06:55:17.295Z,98718.84
2022-10-20T06:57:50.216Z,98722.80
2022-10-20T07:00:22.876Z,98722.15
2022-10-20T07:02:55.827Z,98722.71
2022-10-20T07:05:28.421Z,98721.70
2022-10-20T07:08:01.041Z,98724.95
2022-10-20T07:10:36.655Z,98727.88
2022-10-20T07:13:09.555Z,98731.77
2022-10-20T07:15:43.425Z,98732.91
2022-10-20T07:18:16.306Z,98734.34
2022-10-20T07:20:48.715Z,98730.75
2022-10-20T07:23:21.587Z,98731.79
2022-10-20T07:25:54.037Z,98727.52
2022-10-20T07:28:27.170Z,98728.05
2022-10-20T07:31:03.835Z,98726.36
2022-10-20T07:33:37.261Z,98724.92
2022-10-20T07:36:18.048Z,98723.42
2022-10-20T07:38:51.718Z,98724.29
2022-10-20T07:41:24.695Z,98723.42
2022-10-20T07:43:58.507Z,98725.31
2022-10-20T07:46:31.029Z,98724.27
2022-10-20T07:51:56.296Z,98715.14
2022-10-20T07:54:29.625Z,98717.73
2022-10-20T07:57:01.035Z,98714.98
2022-10-20T07:59:33.674Z,98716.86
2022-10-20T08:02:06.767Z,98716.34
2022-10-20T08:04:39.368Z,98712.88
2022-10-20T08:07:12.285Z,98715.11
2022-10-20T08:12:24.226Z,98722.80
2022-10-20T08:14:58.896Z,98721.70
2022-10-20T08:17:31.958Z,98725.03
2022-10-20T08:20:15.825Z,98723.32
2022-10-20T08:22:51.080Z,98728.45
2022-10-20T08:25:24.267Z,98725.80
2022-10-20T08:30:35.005Z,98731.44
2022-10-20T08:33:07.856Z,98736.97
2022-10-20T08:35:42.263Z,98734.63
2022-10-20T08:38:14.976Z,98737.10
2022-10-20T08:40:48.071Z,98734.36
2022-10-20T08:43:22.506Z,98736.64
2022-10-20T08:45:55.486Z,98731.30
2022-10-20T08:48:32.354Z,98735.98
2022-10-20T08:51:06.330Z,98738.11
2022-10-20T08:53:42.617Z,98734.60
2022-10-20T08:56:17.097Z,98735.99
2022-10-20T08:58:52.105Z,98734.63
2022-10-20T09:01:27.881Z,98736.06
2022-10-20T09:04:04.820Z,98740.48
2022-10-20T09:06:42.186Z,98738.58
2022-10-20T09:09:18.646Z,98738.94
2022-10-20T09:11:52.067Z,98733.66
2022-10-20T09:14:24.692Z,98735.44
2022-10-20T09:17:00.274Z,98732.27
2022-10-20T09:19:35.455Z,98732.84
2022-10-20T09:22:10.307Z,98724.09
2022-10-20T09:24:45.278Z,98724.31
2022-10-20T09:27:31.981Z,98723.17
2022-10-20T09:30:17.816Z,98720.40
2022-10-20T09:32:51.276Z,98719.53
2022-10-20T09:35:30.536Z,98719.70
2022-10-20T09:38:06.922Z,98713.52
2022-10-20T09:40:45.486Z,98714.88
2022-10-20T09:43:21.153Z,98713.89
2022-10-20T09:45:58.226Z,98715.34
2022-10-20T09:48:34.075Z,98716.29
2022-10-20T09:51:08.360Z,98705.33
2022-10-20T09:53:54.576Z,98707.02
2022-10-20T09:56:37.227Z,98711.02
2022-10-20T09:59:20.497Z,98715.28
2022-10-20T10:02:01.964Z,98713.27
2022-10-20T10:04:37.976Z,98715.92
2022-10-20T10:07:33.877Z,98714.84
2022-10-20T10:10:09.258Z,98715.98
2022-10-20T10:12:42.094Z,98714.84
2022-10-20T10:15:30.652Z,98713.69
2022-10-20T10:18:13.985Z,98711.96
2022-10-20T10:20:47.496Z,98709.98
2022-10-20T10:23:31.740Z,98708.44
2022-10-20T10:26:05.031Z,98700.19
2022-10-20T10:28:42.343Z,98697.02
2022-10-20T10:31:26.394Z,98696.63
2022-10-20T10:34:34.207Z,98696.96
2022-10-20T10:37:07.443Z,98697.72
2022-10-20T10:39:40.136Z,98695.07
2022-10-20T10:42:47.774Z,98692.42
2022-10-20T10:45:32.766Z,98694.75
2022-10-20T10:48:42.775Z,98695.16
2022-10-20T10:51:26.836Z,98694.02
2022-10-20T10:54:12.877Z,98690.98
2022-10-20T10:56:49.407Z,98686.89
2022-10-20T10:59:28.396Z,98680.81
2022-10-20T11:02:28.843Z,98681.67
2022-10-20T11:05:35.566Z,98680.16
2022-10-20T11:08:18.977Z,98671.63
2022-10-20T11:11:01.598Z,98670.86
2022-10-20T11:13:42.576Z,98668.47
2022-10-20T11:16:32.525Z,98664.02
2022-10-20T11:19:37.058Z,98663.31
2022-10-20T11:22:15.984Z,98660.26
2022-10-20T11:24:56.108Z,98657.11
2022-10-20T11:27:32.801Z,98655.33
2022-10-20T11:30:16.508Z,98653.89
2022-10-20T11:32:54.632Z,98651.45
2022-10-20T11:35:37.577Z,98652.05
2022-10-20T11:38:20.416Z,98649.81
2022-10-20T11:41:00.795Z,98650.89
2022-10-20T11:43:41.757Z,98642.06
2022-10-20T11:46:18.255Z,98637.73
2022-10-20T11:48:53.556Z,98634.92
2022-10-20T11:51:54.645Z,98634.91
2022-10-20T11:54:42.966Z,98630.27
2022-10-20T11:57:26.715Z,98625.97
2022-10-20T12:00:05.021Z,98618.83
2022-10-20T12:03:07.258Z,98621.96
2022-10-20T12:05:58.015Z,98616.38
2022-10-20T12:08:59.141Z,98608.71
2022-10-20T12:11:37.254Z,98602.30
2022-10-20T12:14:26.677Z,98599.10
2022-10-20T12:17:22.763Z,98601.98
2022-10-20T12:20:15.936Z,98600.57
2022-10-20T12:22:50.570Z,98594.94
2022-10-20T12:25:38.069Z,98592.80
2022-10-20T12:28:45.266Z,98590.65
2022-10-20T12:31:18.016Z,98591.66
2022-10-20T12:34:06.394Z,98590.59
2022-10-20T12:36:41.496Z,98584.41
2022-10-20T12:39:25.277Z,98583.11
2022-10-20T12:42:04.656Z,98579.71
2022-10-20T12:44:47.619Z,98578.64
2022-10-20T12:47:25.677Z,98578.03
2022-10-20T12:50:02.886Z,98572.81
2022-10-20T12:52:38.365Z,98576.31
2022-10-20T12:55:19.514Z,98581.40
2022-10-20T12:58:11.451Z,98573.63
2022-10-20T13:01:06.155Z,98571.92
2022-10-20T13:03:48.217Z,98571.27
2022-10-20T13:06:46.867Z,98568.77
2022-10-20T13:09:27.226Z,98564.60
2022-10-20T13:12:06.615Z,98563.95
2022-10-20T13:14:52.221Z,98559.53
2022-10-20T13:17:31.368Z,98561.51
2022-10-20T13:20:20.723Z,98560.31
2022-10-20T13:22:55.317Z,98562.41
2022-10-20T13:25:37.712Z,98568.27
2022-10-20T13:28:21.915Z,98565.20
2022-10-20T13:31:08.356Z,98564.29
2022-10-20T13:34:04.992Z,98566.00
2022-10-20T13:36:55.120Z,98563.71
2022-10-20T13:39:38.344Z,98563.91
2022-10-20T13:42:21.125Z,98565.10
2022-10-20T13:45:05.917Z,98560.23
2022-10-20T13:47:53.255Z,98557.92
2022-10-20T13:50:29.825Z,98555.25
2022-10-20T13:53:11.216Z,98556.27
2022-10-20T13:55:59.925Z,98549.27
2022-10-20T13:58:33.575Z,98543.67
2022-10-20T14:01:17.310Z,98538.34
2022-10-20T14:03:51.142Z,98538.99
2022-10-20T14:06:39.258Z,98538.25
2022-10-20T14:09:20.128Z,98539.09
2022-10-20T14:11:56.449Z,98533.47
2022-10-20T14:14:31.916Z,98528.72
2022-10-20T14:17:06.578Z,98528.70
2022-10-20T14:19:52.221Z,98525.91
2022-10-20T14:22:27.407Z,98523.98
2022-10-20T14:25:01.556Z,98521.73
2022-10-20T14:27:36.814Z,98518.04
2022-10-20T14:30:19.308Z,98519.16
2022-10-20T14:32:53.282Z,98511.27
2022-10-20T14:35:34.179Z,98508.82
2022-10-20T14:38:18.665Z,98512.83
2022-10-20T14:40:56.570Z,98511.77
2022-10-20T14:43:39.671Z,98513.05
2022-10-20T14:46:26.384Z,98517.23
2022-10-20T14:49:03.378Z,98518.90
2022-10-20T14:51:45.796Z,98515.77
2022-10-20T14:54:30.681Z,98516.73
2022-10-20T14:58:02.504Z,98514.67
2022-10-20T15:00:37.963Z,98506.30
2022-10-20T15:03:11.462Z,98502.42
2022-10-20T15:05:48.836Z,98501.98
2022-10-20T15:08:27.277Z,98501.50
2022-10-20T15:11:01.300Z,98502.18
2022-10-20T15:13:35.586Z,98500.32
2022-10-20T15:16:34.933Z,98499.31
2022-10-20T15:19:30.646Z,98498.85
2022-10-20T15:22:11.004Z,98494.84
2022-10-20T15:24:44.957Z,98492.88
2022-10-20T15:27:19.841Z,98494.31
2022-10-20T15:29:55.510Z,98487.31
2022-10-20T15:32:28.326Z,98485.27
2022-10-20T15:35:02.483Z,98486.66
2022-10-20T15:37:37.659Z,98486.70
2022-10-20T15:40:12.246Z,98484.48
2022-10-20T15:42:45.090Z,98487.80
2022-10-20T15:45:22.656Z,98489.40
2022-10-20T15:47:55.397Z,98483.77
2022-10-20T15:50:28.577Z,98478.48
2022-10-20T15:53:01.605Z,98477.66
2022-10-20T15:55:38.176Z,98475.95
2022-10-20T15:58:11.031Z,98475.64
2022-10-20T16:00:43.801Z,98474.10
2022-10-20T16:03:20.045Z,98473.95
2022-10-20T16:05:54.576Z,98478.08
2022-10-20T16:08:27.768Z,98472.06
2022-10-20T16:11:00.556Z,98477.23
2022-10-20T16:13:33.821Z,98475.00
2022-10-20T16:16:07.507Z,98471.42
2022-10-20T16:18:40.794Z,98470.21
2022-10-20T16:21:13.616Z,98470.05
2022-10-20T16:23:47.836Z,98468.00
2022-10-20T16:26:21.545Z,98476.24
2022-10-20T16:28:54.310Z,98477.11
2022-10-20T16:31:27.789Z,98475.73
2022-10-20T16:34:03.619Z,98473.49
2022-10-20T16:36:36.516Z,98473.30
2022-10-20T16:39:11.905Z,98471.05
2022-10-20T16:41:45.625Z,98476.54
2022-10-20T16:44:18.925Z,98480.30
2022-10-20T16:46:53.086Z,98480.95
2022-10-20T16:49:25.945Z,98482.98
2022-10-20T16:51:59.586Z,98484.17
2022-10-20T16:54:32.872Z,98484.48
2022-10-20T16:57:07.646Z,98481.73
2022-10-20T16:59:43.745Z,98475.89
2022-10-20T17:02:16.925Z,98478.09
2022-10-20T17:04:51.635Z,98477.09
2022-10-20T17:07:24.517Z,98479.13
2022-10-20T17:09:58.005Z,98484.07
2022-10-20T17:12:42.405Z,98484.58
2022-10-20T17:15:16.946Z,98482.02
2022-10-20T17:17:49.756Z,98483.73
2022-10-20T17:20:22.417Z,98483.21
2022-10-20T17:22:57.378Z,98479.77
2022-10-20T17:25:29.917Z,98477.55
2022-10-20T17:28:04.276Z,98477.85
2022-10-20T17:30:36.966Z,98478.86
2022-10-20T17:33:09.729Z,98479.00
2022-10-20T17:35:43.286Z,98475.39
2022-10-20T17:38:13.908Z,98466.46
2022-10-20T17:40:46.996Z,98468.86
2022-10-20T17:43:19.975Z,98467.66
2022-10-20T17:46:02.255Z,98467.99
2022-10-20T17:48:35.273Z,98461.78
2022-10-20T17:51:11.397Z,98460.76
2022-10-20T17:53:46.336Z,98456.64
2022-10-20T17:56:20.787Z,98454.59
2022-10-20T17:58:54.266Z,98459.71
2022-10-20T18:01:30.207Z,98457.33
2022-10-20T18:04:05.217Z,98455.97
2022-10-20T18:06:40.169Z,98454.90
2022-10-20T18:09:15.572Z,98452.84
2022-10-20T18:11:50.790Z,98454.19
2022-10-20T18:14:24.216Z,98452.30
2022-10-20T18:16:59.635Z,98452.46
2022-10-20T18:19:38.437Z,98458.11
2022-10-20T18:22:11.175Z,98455.03
2022-10-20T18:24:43.873Z,98449.17
2022-10-20T18:27:16.826Z,98453.44
2022-10-20T18:29:50.737Z,98453.24
2022-10-20T18:32:23.376Z,98449.30
2022-10-20T18:34:56.305Z,98447.59
2022-10-20T18:37:29.094Z,98448.27
2022-10-20T18:40:03.245Z,98449.80
2022-10-20T18:42:37.065Z,98450.98
2022-10-20T18:45:11.472Z,98451.50
2022-10-20T18:47:47.961Z,98442.55
2022-10-20T18:50:21.396Z,98443.05
2022-10-20T18:52:53.926Z,98444.10
2022-10-20T18:55:26.856Z,98439.11
2022-10-20T18:58:01.217Z,98440.28
2022-10-20T19:00:35.781Z,98437.34
2022-10-20T19:03:11.086Z,98434.77
2022-10-20T19:05:44.286Z,98436.81
2022-10-20T19:08:17.006Z,98433.55
2022-10-20T19:10:50.094Z,98430.66
2022-10-20T19:13:22.757Z,98431.18
2022-10-20T19:15:56.146Z,98426.89
2022-10-20T19:18:31.487Z,98428.59
2022-10-20T19:21:06.596Z,98429.59
2022-10-20T19:23:44.300Z,98427.17
2022-10-20T19:26:25.576Z,98424.23
2022-10-20T19:29:01.383Z,98421.83
2022-10-20T19:31:37.034Z,98420.42
2022-10-20T19:34:12.143Z,98420.42
2022-10-20T19:36:47.275Z,98421.12
2022-10-20T19:41:58.466Z,98410.86
2022-10-20T19:44:31.965Z,98409.34
2022-10-20T19:47:07.145Z,98406.44
2022-10-20T19:49:41.805Z,98410.23
2022-10-20T19:52:15.097Z,98408.86
2022-10-20T19:54:47.974Z,98406.83
2022-10-20T19:57:20.807Z,98402.36
2022-10-20T19:59:53.463Z,98401.16
2022-10-20T20:02:26.916Z,98400.83
2022-10-20T20:05:00.267Z,98404.73
2022-10-20T20:07:33.150Z,98397.55
2022-10-20T20:10:07.060Z,98395.98
2022-10-20T20:12:39.788Z,98400.45
2022-10-20T20:15:12.666Z,98399.27
2022-10-20T20:17:45.636Z,98398.59
2022-10-20T20:20:18.677Z,98390.36
2022-10-20T20:22:52.857Z,98393.44
2022-10-20T20:25:29.507Z,98385.86
2022-10-20T20:28:03.105Z,98385.16
2022-10-20T20:30:38.615Z,98380.54
2022-10-20T20:33:14.056Z,98384.13
2022-10-20T20:35:48.706Z,98383.08
2022-10-20T20:38:21.215Z,98380.84
2022-10-20T20:40:54.456Z,98381.15
2022-10-20T20:43:27.356Z,98388.17
2022-10-20T20:46:06.666Z,98382.48
2022-10-20T20:48:40.595Z,98377.96
2022-10-20T20:51:15.185Z,98370.91
2022-10-20T20:53:47.766Z,98372.45
2022-10-20T20:56:23.427Z,98373.27
2022-10-20T20:58:59.309Z,98367.27
2022-10-20T21:01:33.263Z,98365.54
2022-10-20T21:04:11.774Z,98372.04
2022-10-20T21:07:12.136Z,98367.27
2022-10-20T21:09:39.404Z,98370.45
2022-10-20T21:14:50.633Z,98357.26
2022-10-20T21:17:21.435Z,98354.48
2022-10-20T21:19:55.037Z,98355.86
2022-10-20T21:22:25.945Z,98351.63
2022-10-20T21:24:59.137Z,98349.33
2022-10-20T21:27:32.053Z,98347.80
2022-10-20T21:30:04.870Z,98343.33
2022-10-20T21:32:38.357Z,98343.02
2022-10-20T21:35:09.843Z,98344.20
2022-10-20T21:37:43.217Z,98343.27
2022-10-20T21:40:16.626Z,98342.36
2022-10-20T21:42:49.323Z,98335.50
2022-10-20T21:45:21.896Z,98332.40
2022-10-20T21:47:58.316Z,98331.06
2022-10-20T21:50:30.913Z,98328.09
2022-10-20T21:53:03.645Z,98322.26
2022-10-20T21:55:37.995Z,98323.58
2022-10-20T21:58:11.605Z,98323.57
2022-10-20T22:00:43.986Z,98321.88
2022-10-20T22:03:17.166Z,98324.11
2022-10-20T22:05:51.365Z,98318.95
2022-10-20T22:08:23.997Z,98313.54
2022-10-20T22:10:56.696Z,98306.55
2022-10-20T22:13:29.426Z,98298.87
2022-10-20T22:16:02.295Z,98292.36
2022-10-20T22:18:35.106Z,98288.30
2022-10-20T22:21:11.273Z,98286.24
2022-10-20T22:23:47.033Z,98284.04
2022-10-20T22:26:21.053Z,98286.54
2022-10-20T22:28:55.638Z,98284.50
2022-10-20T22:31:28.895Z,98283.27
2022-10-20T22:34:03.496Z,98280.02
2022-10-20T22:36:36.684Z,98277.76
2022-10-20T22:39:10.215Z,98277.59
2022-10-20T22:41:42.776Z,98272.46
2022-10-20T22:44:15.305Z,98270.73
2022-10-20T22:46:47.905Z,98276.01
2022-10-20T22:49:20.657Z,98278.65
2022-10-20T22:51:53.246Z,98273.37
2022-10-20T22:54:25.716Z,98266.83
2022-10-20T22:56:58.873Z,98263.04
2022-10-20T22:59:33.386Z,98263.98
2022-10-20T23:02:05.975Z,98266.71
2022-10-20T23:04:40.097Z,98262.52
2022-10-20T23:07:12.685Z,98264.39
2022-10-20T23:09:45.376Z,98264.16
2022-10-20T23:12:18.016Z,98263.42
2022-10-20T23:14:51.135Z,98265.47
2022-10-20T23:17:23.643Z,98266.53
2022-10-20T23:19:56.785Z,98267.35
2022-10-20T23:22:31.096Z,98268.69
2022-10-20T23:25:03.678Z,98268.48
2022-10-20T23:27:38.349Z,98266.33
2022-10-20T23:30:12.466Z,98266.06
2022-10-20T23:32:45.606Z,98267.05
2022-10-20T23:35:18.245Z,98269.61
2022-10-20T23:37:51.995Z,98261.88
2022-10-20T23:40:24.656Z,98256.34
2022-10-20T23:42:57.375Z,98255.13
2022-10-20T23:45:31.789Z,98257.98
2022-10-20T23:48:09.256Z,98250.45
2022-10-20T23:50:42.278Z,98244.80
2022-10-20T23:53:15.218Z,98241.63
2022-10-20T23:55:49.363Z,98240.66
2022-10-20T23:58:23.138Z,98235.58
